Coulter, Iowa
Current Conditions -  °F | °C
As of 11:55 PM on Saturday 25 Oct 2014 (Local Time) from KIFA Reporting Station
Clear Clear  
Wind Chill: 43°   Ceiling: Unl
Heat Index: 43°   Visibility: 10mi
Dew Point: 35°   Wind: 0mph
Humidity: 72%   Direction: NA
Pressure: 30.08"   Gusts: NA
Location:  42.74°N, 93.37°W
Report Text: KIFA 260455Z AUTO 00000KT 10SM CLR 06/02 A3008 RMK AO2 T00630015
Loading
Personal Weather Stations






























Interactive Weather Map
Tropical Storm Tracking
New forecast layout! Learn more

10-Day Weather Forecast

Advertisements
Track Severe Weather on mobile